Time;durP1;ratioP1;P1;durP2;ratioP2;P2;SDS_P1;SDS_P2;PMS_P1;PMS_P2;Temp;Humidity;BMP_temperature;BMP_pressure;BME280_temperature;BME280_humidity;BME280_pressure;Samples;Min_cycle;Max_cycle;Signal;HPM_P1;HPM_P2
2022/07/29 00:00:49;;;;;;;1.80;0.75;;;22.70;81.80;;;;;;4952900;28;20046;-77
2022/07/29 00:03:15;;;;;;;0.47;0.47;;;22.60;82.20;;;;;;4952551;28;20348;-77
2022/07/29 00:05:41;;;;;;;0.47;0.47;;;22.50;82.60;;;;;;4953263;29;20024;-77
2022/07/29 00:08:08;;;;;;;0.20;0.20;;;22.50;82.90;;;;;;4953414;28;20035;-77
2022/07/29 00:10:35;;;;;;;0.28;0.28;;;22.50;82.80;;;;;;4952992;28;20126;-77
2022/07/29 00:13:01;;;;;;;0.75;0.40;;;22.50;83.30;;;;;;4951349;29;20031;-77
2022/07/29 00:15:27;;;;;;;0.00;0.00;;;22.50;83.30;;;;;;4951515;29;20035;-77
2022/07/29 00:17:53;;;;;;;0.32;0.28;;;22.50;83.50;;;;;;4952124;29;20546;-77
2022/07/29 00:20:19;;;;;;;0.00;0.00;;;22.50;83.80;;;;;;4952639;28;20039;-77
2022/07/29 00:22:44;;;;;;;0.13;0.13;;;22.50;84.00;;;;;;4952731;29;20121;-77
2022/07/29 00:25:12;;;;;;;0.68;0.63;;;22.70;84.20;;;;;;4951770;29;20031;-77
2022/07/29 00:27:39;;;;;;;0.10;0.10;;;22.80;83.30;;;;;;4951813;29;20408;-77
2022/07/29 00:30:06;;;;;;;0.20;0.15;;;22.90;82.80;;;;;;4951102;29;20035;-77
2022/07/29 00:32:32;;;;;;;2.53;0.30;;;23.00;82.70;;;;;;4951391;29;20042;-77
2022/07/29 00:37:56;;;;;;;0.20;0.20;;;23.10;81.60;;;;;;4941144;28;20047;-78
2022/07/29 00:40:22;;;;;;;0.28;0.20;;;23.00;82.00;;;;;;4952175;29;20035;-77
2022/07/29 00:42:51;;;;;;;0.00;0.00;;;22.90;82.40;;;;;;4952360;29;20109;-78
2022/07/29 00:45:18;;;;;;;8.25;2.10;;;22.90;82.40;;;;;;4951646;29;20019;-78
2022/07/29 00:47:44;;;;;;;0.00;0.00;;;22.80;82.10;;;;;;4951870;29;20115;-78
2022/07/29 00:50:12;;;;;;;0.28;0.28;;;22.70;82.90;;;;;;4950954;29;20039;-77
2022/07/29 00:52:41;;;;;;;0.70;0.43;;;22.50;83.10;;;;;;4951063;29;20027;-77
2022/07/29 00:55:10;;;;;;;0.28;0.25;;;22.40;83.70;;;;;;4951434;29;20073;-78
2022/07/29 00:57:37;;;;;;;0.90;0.88;;;22.40;84.00;;;;;;4951474;29;20059;-78
2022/07/29 01:00:14;;;;;;;0.20;0.13;;;22.50;83.60;;;;;;4951941;28;20073;-78
2022/07/29 01:02:40;;;;;;;0.55;0.40;;;22.60;83.00;;;;;;4935677;29;20502;-77
2022/07/29 01:05:07;;;;;;;0.20;0.15;;;22.60;82.40;;;;;;4949539;28;20058;-78
2022/07/29 01:07:37;;;;;;;0.00;0.00;;;22.60;81.70;;;;;;4948917;28;20380;-77
2022/07/29 01:10:06;;;;;;;0.20;0.13;;;22.40;81.60;;;;;;4952211;28;20118;-77
2022/07/29 01:12:34;;;;;;;0.17;0.17;;;22.30;82.40;;;;;;4954546;28;20042;-77
2022/07/29 01:15:02;;;;;;;0.88;0.40;;;22.30;82.00;;;;;;4954858;29;20415;-77
2022/07/29 01:17:58;;;;;;;0.10;0.10;;;22.30;81.70;;;;;;4955985;28;20495;-77
2022/07/29 01:20:31;;;;;;;0.00;0.00;;;22.30;81.70;;;;;;4968524;28;20054;-77
2022/07/29 01:23:31;;;;;;;2.70;0.60;;;22.30;81.80;;;;;;4970258;28;20067;-77
2022/07/29 01:26:42;;;;;;;0.20;0.20;;;22.10;81.70;;;;;;4936689;29;20070;-77
2022/07/29 01:29:17;;;;;;;0.35;0.35;;;22.00;81.90;;;;;;4935348;29;20031;-77
2022/07/29 01:32:05;;;;;;;0.32;0.08;;;22.00;82.60;;;;;;4937013;29;20035;-77
2022/07/29 01:35:13;;;;;;;0.10;0.10;;;21.90;82.10;;;;;;4935866;29;20046;-77
2022/07/29 01:38:05;;;;;;;0.65;0.35;;;21.70;82.30;;;;;;4935929;29;20112;-77
2022/07/29 01:40:53;;;;;;;0.10;0.10;;;21.60;82.70;;;;;;4939109;29;20028;-77
2022/07/29 01:43:30;;;;;;;1.50;1.33;;;21.60;83.00;;;;;;4956156;28;20687;-77
2022/07/29 01:46:03;;;;;;;0.03;0.03;;;21.60;83.10;;;;;;4970483;28;20039;-77
2022/07/29 01:48:45;;;;;;;0.10;0.10;;;21.50;83.60;;;;;;4954681;29;20512;-76
2022/07/29 01:51:32;;;;;;;28.08;0.93;;;21.50;83.60;;;;;;4954848;29;20038;-77
2022/07/29 01:54:24;;;;;;;0.55;0.10;;;21.60;83.00;;;;;;4954167;29;20085;-77
2022/07/29 01:56:53;;;;;;;0.10;0.10;;;21.10;82.90;;;;;;4954559;29;20047;-77
2022/07/29 01:59:21;;;;;;;0.00;0.00;;;20.90;84.20;;;;;;4954109;29;20039;-76
2022/07/29 02:01:48;;;;;;;0.40;0.40;;;20.80;84.80;;;;;;4954523;29;20035;-77
2022/07/29 02:04:16;;;;;;;0.38;0.30;;;20.70;84.90;;;;;;4953707;29;20388;-76
2022/07/29 02:06:44;;;;;;;0.00;0.00;;;20.70;85.20;;;;;;4954245;29;20027;-76
2022/07/29 02:09:12;;;;;;;0.20;0.15;;;20.70;85.40;;;;;;4953574;29;20024;-76
2022/07/29 02:11:40;;;;;;;0.10;0.05;;;20.60;85.60;;;;;;4954134;29;20419;-76
2022/07/29 02:14:09;;;;;;;0.10;0.10;;;20.50;85.60;;;;;;4954236;29;20046;-76
2022/07/29 02:16:38;;;;;;;0.00;0.00;;;20.60;85.90;;;;;;4953808;29;20044;-76
2022/07/29 02:19:06;;;;;;;1.27;1.00;;;20.70;85.60;;;;;;4969415;28;20047;-76
2022/07/29 02:21:33;;;;;;;0.15;0.10;;;20.80;84.90;;;;;;4969125;28;20035;-76
2022/07/29 02:24:02;;;;;;;0.00;0.00;;;20.90;85.00;;;;;;4969200;28;20035;-76
2022/07/29 02:26:31;;;;;;;0.03;0.03;;;21.00;84.20;;;;;;4969795;28;20534;-76
2022/07/29 02:28:58;;;;;;;0.00;0.00;;;21.10;84.00;;;;;;4968808;28;20046;-76
2022/07/29 02:31:33;;;;;;;0.28;0.20;;;21.20;83.80;;;;;;4954735;28;20067;-76
2022/07/29 02:34:03;;;;;;;0.00;0.00;;;21.20;83.70;;;;;;4990769;23;20129;-69
2022/07/29 02:36:30;;;;;;;0.55;0.47;;;21.20;83.50;;;;;;4965744;28;20027;-69
2022/07/29 02:39:00;;;;;;;0.15;0.13;;;21.10;84.10;;;;;;4971724;28;20393;-69
2022/07/29 02:41:41;;;;;;;0.30;0.20;;;21.00;83.90;;;;;;4972431;28;20035;-69
2022/07/29 02:44:19;;;;;;;0.20;0.20;;;20.90;85.10;;;;;;4968250;28;20082;-69
2022/07/29 02:47:18;;;;;;;4.65;0.70;;;20.80;84.60;;;;;;4953250;29;20032;-69
2022/07/29 02:50:21;;;;;;;0.00;0.00;;;20.70;84.70;;;;;;4952659;29;20034;-69
2022/07/29 02:53:22;;;;;;;0.00;0.00;;;20.40;85.40;;;;;;4953677;28;20043;-69
2022/07/29 02:56:10;;;;;;;0.00;0.00;;;20.40;85.90;;;;;;4954125;28;20117;-69
2022/07/29 02:58:47;;;;;;;0.52;0.30;;;20.20;86.70;;;;;;4952997;29;20613;-69
2022/07/29 03:01:19;;;;;;;0.95;0.82;;;19.90;87.40;;;;;;4952875;29;20515;-68
2022/07/29 03:03:48;;;;;;;0.00;0.00;;;19.90;88.50;;;;;;4952497;29;20070;-69
2022/07/29 03:06:17;;;;;;;0.10;0.00;;;19.90;88.60;;;;;;4952886;29;20031;-69
2022/07/29 03:08:44;;;;;;;1.35;0.95;;;19.90;88.70;;;;;;4952312;29;20106;-69
2022/07/29 03:11:12;;;;;;;0.43;0.43;;;19.90;89.10;;;;;;4952971;29;20049;-69
2022/07/29 03:13:39;;;;;;;2.70;2.47;;;19.90;89.00;;;;;;4952109;29;20440;-69
2022/07/29 03:16:05;;;;;;;0.68;0.68;;;19.90;89.30;;;;;;4953911;28;20503;-69
2022/07/29 03:18:32;;;;;;;0.20;0.20;;;19.80;89.50;;;;;;4953851;28;20043;-69
2022/07/29 03:20:58;;;;;;;0.57;0.55;;;19.70;90.00;;;;;;4952287;29;20034;-69
2022/07/29 03:23:25;;;;;;;1.83;0.82;;;19.80;90.30;;;;;;4952207;29;20138;-69
2022/07/29 03:25:52;;;;;;;0.25;0.25;;;19.80;90.40;;;;;;4953536;28;20501;-69
2022/07/29 03:28:18;;;;;;;0.93;0.80;;;19.90;90.40;;;;;;4953798;28;20027;-69
2022/07/29 03:30:44;;;;;;;0.00;0.00;;;19.90;90.50;;;;;;4953283;28;20031;-69
2022/07/29 03:33:10;;;;;;;0.00;0.00;;;19.80;90.70;;;;;;4952527;28;20035;-69
2022/07/29 03:35:35;;;;;;;0.15;0.15;;;19.50;91.00;;;;;;4953614;28;20043;-70
2022/07/29 03:38:02;;;;;;;0.32;0.28;;;19.40;91.50;;;;;;4953660;28;20484;-70
2022/07/29 03:40:57;;;;;;;0.50;0.47;;;19.40;91.80;;;;;;4951610;29;20035;-70
2022/07/29 03:43:26;;;;;;;0.20;0.20;;;19.50;92.00;;;;;;4946538;28;20035;-70
2022/07/29 03:45:54;;;;;;;5.68;1.13;;;19.60;92.00;;;;;;4952138;29;20042;-68
2022/07/29 03:48:24;;;;;;;0.00;0.00;;;19.50;92.10;;;;;;4952277;29;20608;-67
2022/07/29 03:50:51;;;;;;;0.68;0.68;;;19.60;92.30;;;;;;4951858;29;20039;-68
2022/07/29 03:53:18;;;;;;;6.45;0.70;;;19.70;92.10;;;;;;4952958;28;20042;-67
2022/07/29 03:55:50;;;;;;;1.38;1.13;;;19.70;92.10;;;;;;4951679;29;20027;-67
2022/07/29 03:58:18;;;;;;;7.97;1.48;;;19.70;92.20;;;;;;4952073;29;20039;-68
2022/07/29 04:00:44;;;;;;;0.65;0.65;;;19.60;92.30;;;;;;4951473;29;20025;-69
2022/07/29 04:03:10;;;;;;;0.10;0.10;;;19.50;92.70;;;;;;4952773;28;20023;-69
2022/07/29 04:05:36;;;;;;;0.22;0.22;;;19.40;93.20;;;;;;4951755;29;20035;-69
2022/07/29 04:08:02;;;;;;;1.67;1.00;;;19.40;93.30;;;;;;4953353;28;20035;-69
2022/07/29 04:10:28;;;;;;;0.68;0.47;;;19.30;93.60;;;;;;4935256;29;20506;-68
2022/07/29 04:12:53;;;;;;;0.15;0.15;;;19.30;93.60;;;;;;4952572;29;20510;-67
2022/07/29 04:15:19;;;;;;;1.40;1.10;;;19.30;93.90;;;;;;4944293;28;20031;-67
2022/07/29 04:17:45;;;;;;;0.25;0.25;;;19.40;93.90;;;;;;4907292;29;20205;-67
2022/07/29 04:20:14;;;;;;;5.60;1.88;;;19.30;94.10;;;;;;4933456;29;20032;-66
2022/07/29 04:22:40;;;;;;;0.93;0.60;;;19.30;94.00;;;;;;4932535;29;20031;-66
2022/07/29 04:25:07;;;;;;;1.10;1.00;;;19.30;94.10;;;;;;4932103;29;20043;-67
2022/07/29 04:27:33;;;;;;;0.08;0.08;;;19.40;94.30;;;;;;4932613;29;20103;-67
2022/07/29 04:29:59;;;;;;;2.90;0.57;;;19.50;94.20;;;;;;4933612;29;20449;-67
2022/07/29 04:32:26;;;;;;;0.63;0.63;;;19.50;94.20;;;;;;4934116;29;20039;-67
2022/07/29 04:34:52;;;;;;;1.10;0.90;;;19.50;94.30;;;;;;4942617;29;20118;-66
2022/07/29 04:37:18;;;;;;;0.30;0.30;;;19.60;94.10;;;;;;4941622;29;20127;-67
2022/07/29 04:39:47;;;;;;;1.15;0.82;;;19.60;94.30;;;;;;4932899;29;20091;-67
2022/07/29 04:42:13;;;;;;;0.30;0.30;;;19.70;94.30;;;;;;4932837;29;20032;-67
2022/07/29 04:44:38;;;;;;;0.88;0.88;;;19.70;94.30;;;;;;4933999;29;20091;-68
2022/07/29 04:47:08;;;;;;;3.50;1.75;;;19.60;94.40;;;;;;4937395;29;20031;-68
2022/07/29 04:49:34;;;;;;;0.55;0.28;;;19.50;94.70;;;;;;4936839;29;20039;-68
2022/07/29 04:52:00;;;;;;;4.00;1.17;;;19.60;94.90;;;;;;4935549;29;20427;-67
2022/07/29 04:54:25;;;;;;;0.50;0.30;;;19.70;94.80;;;;;;4936793;29;20063;-67
2022/07/29 04:56:51;;;;;;;2.30;1.13;;;19.80;94.90;;;;;;4936564;29;20028;-68
2022/07/29 04:59:17;;;;;;;0.63;0.55;;;19.80;94.80;;;;;;4936467;29;20435;-69
2022/07/29 05:01:42;;;;;;;0.75;0.65;;;19.80;94.90;;;;;;4937095;29;20389;-68
2022/07/29 05:04:08;;;;;;;0.38;0.30;;;19.90;94.80;;;;;;4936116;29;20063;-68
2022/07/29 05:06:34;;;;;;;0.45;0.45;;;20.00;94.80;;;;;;4936673;29;20024;-68
2022/07/29 05:08:59;;;;;;;0.45;0.45;;;20.10;94.60;;;;;;4935265;29;20606;-65
2022/07/29 05:11:25;;;;;;;0.68;0.65;;;20.20;94.70;;;;;;4936359;29;20035;-65
2022/07/29 05:13:51;;;;;;;0.30;0.30;;;20.20;94.70;;;;;;4936530;29;20074;-68
2022/07/29 05:16:17;;;;;;;1.83;1.08;;;20.30;94.70;;;;;;4952736;29;20078;-69
2022/07/29 05:18:42;;;;;;;0.45;0.40;;;20.40;94.60;;;;;;4955383;29;20062;-68
2022/07/29 05:21:08;;;;;;;2.53;1.85;;;20.50;94.60;;;;;;4955753;29;20066;-68
2022/07/29 05:23:34;;;;;;;1.08;1.02;;;20.60;94.50;;;;;;4955387;29;20028;-69
2022/07/29 05:25:59;;;;;;;0.35;0.35;;;20.60;94.40;;;;;;4955507;28;20028;-68
2022/07/29 05:28:25;;;;;;;0.20;0.20;;;20.70;94.70;;;;;;4955848;28;20502;-69
2022/07/29 05:30:51;;;;;;;13.38;4.00;;;20.70;94.30;;;;;;4950758;29;20035;-68
2022/07/29 05:33:17;;;;;;;2.05;1.92;;;20.80;94.10;;;;;;4935344;29;20503;-69
2022/07/29 05:35:42;;;;;;;18.65;1.35;;;20.80;93.80;;;;;;4936325;29;20042;-68
2022/07/29 05:38:08;;;;;;;1.10;1.02;;;20.90;93.50;;;;;;4938870;29;20034;-66
2022/07/29 05:40:34;;;;;;;0.35;0.35;;;21.00;93.60;;;;;;4951974;29;20037;-66
2022/07/29 05:42:59;;;;;;;3.15;1.80;;;21.10;93.40;;;;;;4954800;28;20019;-67
2022/07/29 05:45:25;;;;;;;6.93;0.80;;;21.10;93.30;;;;;;4955348;28;20499;-68
2022/07/29 05:47:51;;;;;;;1.30;1.17;;;21.10;93.40;;;;;;4953618;29;20027;-68
2022/07/29 05:50:17;;;;;;;0.77;0.75;;;21.20;93.70;;;;;;4955091;28;20058;-68
2022/07/29 05:52:42;;;;;;;0.32;0.32;;;21.20;93.30;;;;;;4954907;28;20086;-69
2022/07/29 05:55:09;;;;;;;6.68;2.13;;;21.30;93.30;;;;;;4953770;29;20038;-68
2022/07/29 05:57:34;;;;;;;0.65;0.50;;;21.30;93.60;;;;;;4955333;28;20031;-68
2022/07/29 06:00:00;;;;;;;0.28;0.28;;;21.40;93.50;;;;;;4938118;29;20090;-67
2022/07/29 06:02:26;;;;;;;0.65;0.47;;;21.50;93.60;;;;;;4950041;28;20446;-67
2022/07/29 06:04:52;;;;;;;29.65;1.55;;;21.50;93.70;;;;;;4934837;29;20112;-67
2022/07/29 06:07:18;;;;;;;0.65;0.60;;;21.60;93.80;;;;;;4935651;29;20039;-67
2022/07/29 06:09:43;;;;;;;2.97;2.15;;;21.70;93.90;;;;;;4935230;29;20035;-68
2022/07/29 06:12:09;;;;;;;6.45;1.45;;;21.80;94.00;;;;;;4933963;29;20087;-68
2022/07/29 06:14:35;;;;;;;0.20;0.20;;;21.90;94.20;;;;;;4934341;29;20032;-68
2022/07/29 06:17:01;;;;;;;4.40;0.68;;;21.90;94.40;;;;;;4938198;29;20118;-67
2022/07/29 06:19:27;;;;;;;0.05;0.05;;;22.00;94.40;;;;;;4934759;29;20040;-68
2022/07/29 06:21:53;;;;;;;3.75;1.77;;;22.10;94.60;;;;;;4935264;29;20114;-68
2022/07/29 06:24:19;;;;;;;0.38;0.32;;;22.20;94.30;;;;;;4935016;29;20055;-69
2022/07/29 06:26:45;;;;;;;0.22;0.13;;;22.10;94.30;;;;;;4935507;29;20078;-69
2022/07/29 06:29:11;;;;;;;2.22;0.85;;;22.20;94.30;;;;;;4907993;28;20044;-69
2022/07/29 06:31:38;;;;;;;3.30;1.08;;;22.40;94.50;;;;;;4935470;29;20491;-69
2022/07/29 06:34:04;;;;;;;0.20;0.20;;;22.50;94.20;;;;;;4933581;29;20043;-68
2022/07/29 06:36:30;;;;;;;0.82;0.47;;;22.60;94.20;;;;;;4933822;29;20082;-68
2022/07/29 06:38:56;;;;;;;2.80;1.10;;;22.70;94.30;;;;;;4933554;29;20122;-68
2022/07/29 06:41:22;;;;;;;4.80;1.35;;;22.70;94.30;;;;;;4935027;29;20490;-67
2022/07/29 06:43:51;;;;;;;0.40;0.40;;;22.70;94.00;;;;;;4936254;29;20031;-67
2022/07/29 06:46:18;;;;;;;1.08;1.02;;;22.90;94.20;;;;;;4924668;29;20034;-68
2022/07/29 06:48:47;;;;;;;0.45;0.45;;;23.10;94.40;;;;;;4917509;29;20024;-68
2022/07/29 06:51:13;;;;;;;0.55;0.55;;;23.10;94.70;;;;;;4934562;28;20076;-67
2022/07/29 06:53:40;;;;;;;2.35;1.10;;;23.20;94.60;;;;;;4917473;29;20031;-68
2022/07/29 06:56:12;;;;;;;0.10;0.10;;;23.10;94.70;;;;;;4917749;29;20479;-66
2022/07/29 06:58:38;;;;;;;6.07;2.45;;;23.20;95.00;;;;;;4933286;29;20499;-67
2022/07/29 07:01:06;;;;;;;3.53;0.75;;;23.40;94.80;;;;;;4934658;29;20032;-67
2022/07/29 07:03:33;;;;;;;0.65;0.40;;;23.60;94.40;;;;;;4934503;29;20056;-66
2022/07/29 07:05:58;;;;;;;0.95;0.65;;;23.50;94.10;;;;;;4947183;29;20028;-66
2022/07/29 07:08:24;;;;;;;0.30;0.20;;;23.30;94.50;;;;;;4952687;28;20042;-67
2022/07/29 07:10:52;;;;;;;0.10;0.10;;;23.40;94.60;;;;;;4952328;29;20035;-67
2022/07/29 07:13:18;;;;;;;2.13;0.60;;;23.40;94.20;;;;;;4968510;28;20042;-67
2022/07/29 07:15:48;;;;;;;0.38;0.38;;;23.40;94.20;;;;;;4951816;28;20023;-68
2022/07/29 07:18:15;;;;;;;0.35;0.35;;;23.50;94.10;;;;;;4953876;28;20046;-68
2022/07/29 07:20:41;;;;;;;0.28;0.25;;;23.40;94.00;;;;;;4951778;29;20078;-68
2022/07/29 07:23:07;;;;;;;0.47;0.40;;;23.60;93.50;;;;;;4935520;29;20055;-68
2022/07/29 07:25:33;;;;;;;0.52;0.47;;;23.40;94.00;;;;;;4953198;28;20069;-68
2022/07/29 07:27:59;;;;;;;0.32;0.32;;;23.50;94.00;;;;;;4935517;29;20027;-67
2022/07/29 07:30:27;;;;;;;0.20;0.20;;;23.40;94.10;;;;;;4952949;28;20090;-67
2022/07/29 07:32:53;;;;;;;0.25;0.25;;;23.70;94.10;;;;;;4950239;28;20137;-67
2022/07/29 07:35:19;;;;;;;0.55;0.40;;;23.90;93.60;;;;;;4951666;28;20488;-67
2022/07/29 07:37:45;;;;;;;0.00;0.00;;;23.80;93.40;;;;;;4952506;28;20035;-68
2022/07/29 07:40:11;;;;;;;0.20;0.20;;;24.00;93.40;;;;;;4934430;29;20039;-67
2022/07/29 07:42:39;;;;;;;1.85;0.15;;;23.80;93.20;;;;;;4936049;29;20059;-67
2022/07/29 07:45:09;;;;;;;2.53;1.70;;;23.80;93.40;;;;;;4951705;28;20019;-67
2022/07/29 07:47:36;;;;;;;17.40;5.13;;;23.90;93.30;;;;;;4936325;29;20034;-67
2022/07/29 07:50:08;;;;;;;0.13;0.08;;;23.90;93.50;;;;;;4920433;29;20512;-67
2022/07/29 07:52:34;;;;;;;0.63;0.30;;;23.90;93.10;;;;;;4932165;29;20067;-67
2022/07/29 07:55:00;;;;;;;6.57;1.98;;;23.80;93.60;;;;;;4916880;29;20074;-67
2022/07/29 07:57:27;;;;;;;1.08;0.47;;;23.90;93.50;;;;;;4920918;29;20049;-68
2022/07/29 07:59:52;;;;;;;0.20;0.17;;;24.20;93.50;;;;;;4947872;29;20122;-67
2022/07/29 08:02:18;;;;;;;2.28;1.35;;;24.30;93.20;;;;;;4954147;28;20118;-67
2022/07/29 08:04:44;;;;;;;0.10;0.10;;;24.20;93.00;;;;;;4952676;28;20038;-66
2022/07/29 08:07:10;;;;;;;0.40;0.40;;;24.30;93.10;;;;;;4935167;29;20031;-67
2022/07/29 08:09:36;;;;;;;0.28;0.20;;;24.40;92.80;;;;;;4952763;29;20578;-67
2022/07/29 08:12:03;;;;;;;3.65;1.10;;;24.30;92.90;;;;;;4951395;28;20119;-67
2022/07/29 08:14:30;;;;;;;0.38;0.20;;;24.40;92.90;;;;;;4916793;29;20027;-67
2022/07/29 08:16:56;;;;;;;0.38;0.35;;;24.50;92.90;;;;;;4916225;29;20032;-67
2022/07/29 08:19:22;;;;;;;0.47;0.47;;;24.60;92.80;;;;;;4932361;29;20388;-68
2022/07/29 08:21:48;;;;;;;0.10;0.10;;;24.40;93.00;;;;;;4939452;29;20027;-67
2022/07/29 08:26:58;;;;;;;0.00;0.00;;;24.60;93.10;;;;;;4955414;28;20027;-67
2022/07/29 08:29:24;;;;;;;2.65;1.30;;;24.20;93.50;;;;;;4938276;29;20127;-67
2022/07/29 08:31:50;;;;;;;0.17;0.17;;;24.30;93.50;;;;;;4955688;28;20038;-67
2022/07/29 08:34:16;;;;;;;0.00;0.00;;;24.40;93.70;;;;;;4938491;29;20504;-67
2022/07/29 08:36:42;;;;;;;2.08;0.22;;;24.60;93.50;;;;;;4935672;29;20036;-67
2022/07/29 08:39:08;;;;;;;0.17;0.13;;;24.60;93.30;;;;;;4935776;29;20028;-67
2022/07/29 08:41:35;;;;;;;6.95;2.15;;;24.60;93.10;;;;;;4951602;28;20032;-67
2022/07/29 08:44:00;;;;;;;0.45;0.38;;;24.70;92.90;;;;;;4919709;29;20114;-67
2022/07/29 08:46:27;;;;;;;0.40;0.38;;;24.60;93.10;;;;;;4920437;29;20188;-66
2022/07/29 08:48:53;;;;;;;0.73;0.52;;;24.90;92.90;;;;;;4930014;29;20114;-67
2022/07/29 08:51:21;;;;;;;1.50;0.60;;;24.90;92.80;;;;;;4939252;29;20031;-66
2022/07/29 08:53:49;;;;;;;0.60;0.60;;;25.10;92.60;;;;;;4953569;29;20039;-67
2022/07/29 08:56:18;;;;;;;1.33;1.23;;;25.20;92.20;;;;;;4939239;29;20032;-66
2022/07/29 08:58:46;;;;;;;1.23;0.95;;;25.30;92.20;;;;;;4938489;29;20058;-67
2022/07/29 09:01:17;;;;;;;0.40;0.40;;;25.20;92.80;;;;;;4955093;28;20023;-67
2022/07/29 09:03:45;;;;;;;0.55;0.30;;;24.80;92.40;;;;;;4937647;29;20090;-68
2022/07/29 09:06:18;;;;;;;0.85;0.75;;;24.90;92.60;;;;;;4939102;29;20031;-68
2022/07/29 09:08:45;;;;;;;38.03;2.95;;;25.30;92.40;;;;;;4937910;29;20082;-67
2022/07/29 09:11:12;;;;;;;0.20;0.20;;;25.10;92.30;;;;;;4938870;29;20121;-66
2022/07/29 09:13:38;;;;;;;0.32;0.30;;;25.10;92.60;;;;;;4945746;29;20122;-66
2022/07/29 09:16:05;;;;;;;3.78;1.73;;;25.00;92.50;;;;;;4919652;29;20038;-69
2022/07/29 09:18:43;;;;;;;0.93;0.75;;;24.80;92.90;;;;;;4922878;29;20121;-69
2022/07/29 09:24:13;;;;;;;0.63;0.50;;;25.20;92.50;;;;;;4944975;29;20118;-69
2022/07/29 09:26:44;;;;;;;2.00;0.30;;;25.30;92.60;;;;;;4935894;29;20038;-68
2022/07/29 09:29:23;;;;;;;2.75;0.65;;;25.50;92.40;;;;;;4924914;29;20537;-69
2022/07/29 09:31:52;;;;;;;0.47;0.47;;;25.40;92.80;;;;;;4938592;29;20070;-69
2022/07/29 09:34:25;;;;;;;1.20;1.10;;;25.60;92.50;;;;;;4938015;29;20093;-68
2022/07/29 09:36:53;;;;;;;0.35;0.35;;;25.70;92.50;;;;;;4938461;29;20035;-68
2022/07/29 09:39:32;;;;;;;0.10;0.10;;;25.80;92.00;;;;;;4936768;29;20054;-68
2022/07/29 09:42:02;;;;;;;2.45;1.23;;;25.90;91.90;;;;;;4955218;28;20066;-69
2022/07/29 09:44:50;;;;;;;0.80;0.80;;;26.10;91.60;;;;;;4972429;23;20138;-67
2022/07/29 09:47:18;;;;;;;20.45;1.90;;;25.80;91.70;;;;;;4953912;29;20038;-67
2022/07/29 09:49:54;;;;;;;0.80;0.57;;;25.70;91.90;;;;;;4964617;28;20041;-67
2022/07/29 09:52:21;;;;;;;0.32;0.32;;;25.80;91.90;;;;;;4973740;28;20387;-67
2022/07/29 09:54:47;;;;;;;0.93;0.65;;;26.00;91.40;;;;;;4973597;28;20113;-68
2022/07/29 09:57:28;;;;;;;0.63;0.40;;;26.00;91.20;;;;;;4973021;28;20022;-68
2022/07/29 10:00:08;;;;;;;0.40;0.40;;;25.90;91.30;;;;;;4971572;28;20122;-69
2022/07/29 10:02:37;;;;;;;8.32;0.75;;;25.80;91.70;;;;;;4974175;28;20105;-68
2022/07/29 10:05:15;;;;;;;0.30;0.30;;;26.10;91.40;;;;;;4972779;28;20085;-66
2022/07/29 10:07:56;;;;;;;2.35;1.25;;;26.40;90.90;;;;;;4989373;28;20054;-69
2022/07/29 10:10:27;;;;;;;0.52;0.47;;;26.70;90.70;;;;;;4971923;28;20039;-68
2022/07/29 10:13:04;;;;;;;0.77;0.77;;;26.70;90.10;;;;;;4972753;28;20023;-68
2022/07/29 10:15:40;;;;;;;0.65;0.60;;;27.00;90.00;;;;;;4973974;28;20035;-69
2022/07/29 10:18:08;;;;;;;0.63;0.60;;;26.90;89.40;;;;;;4974071;28;20034;-69
2022/07/29 10:20:34;;;;;;;0.43;0.40;;;26.70;89.40;;;;;;4959905;28;20039;-69
2022/07/29 10:23:00;;;;;;;0.95;0.90;;;26.90;88.90;;;;;;4945806;28;20082;-70
2022/07/29 10:25:28;;;;;;;1.45;0.38;;;27.10;88.20;;;;;;4973378;28;20393;-68
2022/07/29 10:27:54;;;;;;;0.30;0.30;;;26.90;88.10;;;;;;4988645;28;20460;-69
2022/07/29 10:30:23;;;;;;;0.13;0.13;;;26.90;88.10;;;;;;4987338;28;20037;-69
2022/07/29 10:33:29;;;;;;;0.50;0.47;;;27.30;87.20;;;;;;4957471;28;20685;-69
2022/07/29 10:36:07;;;;;;;0.08;0.08;;;27.60;86.30;;;;;;4988690;28;20120;-69
2022/07/29 10:38:50;;;;;;;1.85;0.77;;;27.80;86.40;;;;;;4973433;28;20419;-69
2022/07/29 10:42:03;;;;;;;0.57;0.52;;;28.20;85.60;;;;;;4970194;28;20039;-70
2022/07/29 10:44:30;;;;;;;0.57;0.30;;;27.90;84.70;;;;;;4971985;28;20053;-69
2022/07/29 10:46:56;;;;;;;0.32;0.32;;;27.70;86.50;;;;;;4972034;28;20123;-69
2022/07/29 10:49:25;;;;;;;0.82;0.57;;;27.70;86.10;;;;;;4970638;28;20533;-70
2022/07/29 10:52:01;;;;;;;0.22;0.22;;;27.70;85.40;;;;;;4972043;28;20431;-69
2022/07/29 10:54:42;;;;;;;0.98;0.73;;;27.60;86.70;;;;;;4972865;28;20034;-69
2022/07/29 10:57:21;;;;;;;0.40;0.28;;;27.50;85.90;;;;;;4971646;28;20039;-69
2022/07/29 10:59:50;;;;;;;0.77;0.77;;;27.40;85.70;;;;;;4972409;28;20443;-69
2022/07/29 11:02:51;;;;;;;0.35;0.20;;;27.20;86.40;;;;;;4972649;28;20521;-69
2022/07/29 11:05:19;;;;;;;1.17;1.08;;;27.50;86.40;;;;;;4960611;28;20046;-69
2022/07/29 11:08:11;;;;;;;0.15;0.08;;;27.60;85.40;;;;;;4971426;28;20042;-69
2022/07/29 11:10:37;;;;;;;0.15;0.15;;;27.80;85.30;;;;;;4972617;28;20034;-69
2022/07/29 11:13:03;;;;;;;0.75;0.57;;;27.70;84.60;;;;;;4970660;28;20045;-68
2022/07/29 11:15:49;;;;;;;0.30;0.30;;;27.70;85.00;;;;;;4972014;28;20093;-69
2022/07/29 11:18:15;;;;;;;0.55;0.43;;;27.90;85.40;;;;;;4948156;28;20031;-68
2022/07/29 11:20:48;;;;;;;0.38;0.30;;;28.10;84.40;;;;;;4955289;28;20031;-69
2022/07/29 11:23:23;;;;;;;0.95;0.73;;;28.30;83.70;;;;;;4954646;28;20026;-69
2022/07/29 11:26:24;;;;;;;0.25;0.25;;;28.20;84.40;;;;;;4971794;28;20027;-70
2022/07/29 11:28:53;;;;;;;0.47;0.47;;;28.10;83.60;;;;;;4970371;28;20035;-69
2022/07/29 11:31:37;;;;;;;0.32;0.25;;;28.60;83.30;;;;;;4971273;28;20027;-69
2022/07/29 11:34:23;;;;;;;0.60;0.60;;;28.80;82.70;;;;;;4971524;28;20034;-67
2022/07/29 11:37:13;;;;;;;3.72;0.20;;;28.90;82.10;;;;;;4902020;28;20050;-67
2022/07/29 11:40:06;;;;;;;2.63;0.50;;;28.90;82.30;;;;;;4967342;28;20403;-67
2022/07/29 11:42:35;;;;;;;0.00;0.00;;;29.50;81.00;;;;;;4968870;28;20853;-66
2022/07/29 11:45:13;;;;;;;0.55;0.52;;;29.80;80.80;;;;;;4980802;28;20022;-67
2022/07/29 11:47:49;;;;;;;0.75;0.57;;;30.00;80.70;;;;;;4951645;28;20059;-66
2022/07/29 11:50:47;;;;;;;6.75;2.45;;;30.20;79.40;;;;;;4952290;28;20534;-67
2022/07/29 11:53:14;;;;;;;0.13;0.13;;;30.20;79.30;;;;;;4947818;28;20050;-67
2022/07/29 11:55:41;;;;;;;0.57;0.40;;;30.00;79.70;;;;;;4951939;28;20023;-67
2022/07/29 11:58:08;;;;;;;0.10;0.10;;;30.10;79.00;;;;;;4950105;28;20454;-68
2022/07/29 12:00:40;;;;;;;0.40;0.25;;;29.80;79.60;;;;;;4967917;28;20027;-68
2022/07/29 12:03:09;;;;;;;2.60;1.13;;;30.20;79.30;;;;;;4970584;28;20022;-67
2022/07/29 12:05:42;;;;;;;0.25;0.25;;;29.70;77.80;;;;;;4975418;28;20035;-68
2022/07/29 12:08:21;;;;;;;0.32;0.28;;;29.90;78.60;;;;;;4973715;28;20495;-67
2022/07/29 12:10:51;;;;;;;0.28;0.25;;;30.60;78.40;;;;;;4987090;28;20034;-67
2022/07/29 12:13:20;;;;;;;0.45;0.45;;;30.80;77.40;;;;;;4989704;28;20030;-67
2022/07/29 12:15:58;;;;;;;0.30;0.30;;;31.00;75.20;;;;;;4974100;28;20039;-67
2022/07/29 12:18:24;;;;;;;0.55;0.50;;;30.90;75.00;;;;;;4978060;28;20054;-68
2022/07/29 12:21:03;;;;;;;0.13;0.13;;;30.70;75.80;;;;;;5004105;28;20038;-68
2022/07/29 12:23:32;;;;;;;0.17;0.17;;;30.40;75.80;;;;;;4979510;28;20030;-68
2022/07/29 12:25:58;;;;;;;0.20;0.20;;;30.30;75.50;;;;;;4967155;28;20023;-70
2022/07/29 12:28:24;;;;;;;1.35;0.95;;;30.60;75.50;;;;;;4973695;28;20034;-68
2022/07/29 12:30:51;;;;;;;0.10;0.10;;;30.80;75.10;;;;;;4971257;28;20041;-69
2022/07/29 12:33:28;;;;;;;0.68;0.50;;;31.10;74.20;;;;;;4984236;28;20037;-68
2022/07/29 12:36:01;;;;;;;2.30;0.73;;;31.00;73.90;;;;;;4970047;28;20086;-68
2022/07/29 12:38:27;;;;;;;1.20;0.82;;;30.60;75.60;;;;;;4978288;28;20030;-67
2022/07/29 12:40:54;;;;;;;1.30;0.68;;;30.80;75.80;;;;;;4981293;28;20058;-67
2022/07/29 12:43:23;;;;;;;0.25;0.20;;;31.30;73.10;;;;;;5006005;28;20034;-67
2022/07/29 12:45:55;;;;;;;0.20;0.20;;;31.70;71.70;;;;;;4990308;28;20018;-67
2022/07/29 12:48:39;;;;;;;0.10;0.10;;;31.70;71.60;;;;;;4990386;28;20026;-67
2022/07/29 12:51:07;;;;;;;0.10;0.10;;;32.00;71.00;;;;;;4968513;28;20544;-68
2022/07/29 12:53:33;;;;;;;0.30;0.20;;;31.90;71.30;;;;;;4970097;28;20070;-67
2022/07/29 12:56:03;;;;;;;0.00;0.00;;;31.90;71.20;;;;;;4954435;28;20120;-68
2022/07/29 12:58:36;;;;;;;0.60;0.43;;;31.40;70.80;;;;;;4970978;28;20220;-67
2022/07/29 13:01:19;;;;;;;1.20;0.30;;;31.10;71.10;;;;;;4971222;28;20030;-67
2022/07/29 13:03:48;;;;;;;0.10;0.10;;;30.50;71.60;;;;;;4971233;28;20231;-69
2022/07/29 13:06:37;;;;;;;0.47;0.40;;;30.20;71.90;;;;;;4968676;28;20155;-68
2022/07/29 13:09:13;;;;;;;0.13;0.13;;;30.30;73.10;;;;;;4954553;29;20089;-68
2022/07/29 13:11:45;;;;;;;0.22;0.15;;;30.40;72.80;;;;;;4956018;28;20023;-68